sensor_id;sensor_type;location;lat;lon;timestamp;P1;durP1;ratioP1;P2;durP2;ratioP2
19836;SDS011;10079;55.740;37.662;2023-09-12T11:59:25;11.47;;;7.90;;
19836;SDS011;10079;55.740;37.662;2023-09-12T12:02:18;16.70;;;7.20;;
19836;SDS011;10079;55.740;37.662;2023-09-12T12:05:11;12.63;;;7.43;;
19836;SDS011;10079;55.740;37.662;2023-09-12T12:07:52;8.87;;;6.13;;
19836;SDS011;10079;55.740;37.662;2023-09-12T12:12:55;9.40;;;6.10;;
19836;SDS011;10079;55.740;37.662;2023-09-12T12:15:40;10.18;;;6.50;;
19836;SDS011;10079;55.740;37.662;2023-09-12T12:18:30;13.23;;;9.23;;
19836;SDS011;10079;55.740;37.662;2023-09-12T12:21:14;7.32;;;6.05;;
19836;SDS011;10079;55.740;37.662;2023-09-12T12:23:59;10.43;;;6.27;;
19836;SDS011;10079;55.740;37.662;2023-09-12T12:26:43;9.53;;;5.93;;
19836;SDS011;10079;55.740;37.662;2023-09-12T12:29:24;9.03;;;5.70;;
19836;SDS011;10079;55.740;37.662;2023-09-12T12:32:05;6.93;;;5.05;;
19836;SDS011;10079;55.740;37.662;2023-09-12T12:34:48;9.73;;;5.30;;
19836;SDS011;10079;55.740;37.662;2023-09-12T12:37:35;8.10;;;4.97;;
19836;SDS011;10079;55.740;37.662;2023-09-12T12:40:16;7.43;;;5.23;;
19836;SDS011;10079;55.740;37.662;2023-09-12T15:07:14;8.53;;;5.57;;
19836;SDS011;10079;55.740;37.662;2023-09-12T15:10:04;7.67;;;5.30;;
19836;SDS011;10079;55.740;37.662;2023-09-12T15:12:48;5.57;;;4.53;;
19836;SDS011;10079;55.740;37.662;2023-09-12T15:15:32;7.20;;;4.90;;
19836;SDS011;10079;55.740;37.662;2023-09-12T15:18:16;6.67;;;5.07;;
19836;SDS011;10079;55.740;37.662;2023-09-12T15:21:10;6.50;;;4.37;;
19836;SDS011;10079;55.740;37.662;2023-09-12T15:23:51;7.47;;;4.57;;
19836;SDS011;10079;55.740;37.662;2023-09-12T15:26:35;7.23;;;4.93;;
19836;SDS011;10079;55.740;37.662;2023-09-12T15:29:19;6.90;;;4.73;;
19836;SDS011;10079;55.740;37.662;2023-09-12T15:32:04;7.60;;;5.37;;
19836;SDS011;10079;55.740;37.662;2023-09-12T15:34:46;7.87;;;5.27;;
19836;SDS011;10079;55.740;37.662;2023-09-12T15:37:39;10.27;;;5.13;;
19836;SDS011;10079;55.740;37.662;2023-09-12T15:40:20;6.70;;;4.57;;
19836;SDS011;10079;55.740;37.662;2023-09-12T15:43:10;6.97;;;4.23;;
19836;SDS011;10079;55.740;37.662;2023-09-12T15:45:51;8.90;;;5.30;;
19836;SDS011;10079;55.740;37.662;2023-09-12T15:48:32;8.10;;;5.53;;
19836;SDS011;10079;55.740;37.662;2023-09-12T15:51:16;9.10;;;4.90;;
19836;SDS011;10079;55.740;37.662;2023-09-12T15:53:57;6.63;;;4.97;;
19836;SDS011;10079;55.740;37.662;2023-09-12T15:56:38;11.47;;;5.20;;
19836;SDS011;10079;55.740;37.662;2023-09-12T15:59:27;6.23;;;5.17;;
19836;SDS011;10079;55.740;37.662;2023-09-12T16:02:11;9.33;;;5.17;;
19836;SDS011;10079;55.740;37.662;2023-09-12T16:04:58;9.03;;;5.90;;
19836;SDS011;10079;55.740;37.662;2023-09-12T16:07:39;7.43;;;5.60;;
19836;SDS011;10079;55.740;37.662;2023-09-12T16:10:20;8.50;;;5.37;;
19836;SDS011;10079;55.740;37.662;2023-09-12T16:13:04;11.87;;;5.63;;
19836;SDS011;10079;55.740;37.662;2023-09-12T16:15:54;7.67;;;5.03;;
19836;SDS011;10079;55.740;37.662;2023-09-12T16:18:35;7.93;;;5.27;;
19836;SDS011;10079;55.740;37.662;2023-09-12T16:21:19;7.10;;;5.03;;
19836;SDS011;10079;55.740;37.662;2023-09-12T16:24:00;10.47;;;5.47;;
19836;SDS011;10079;55.740;37.662;2023-09-12T16:26:41;8.23;;;5.10;;
19836;SDS011;10079;55.740;37.662;2023-09-12T16:29:22;8.20;;;5.57;;
19836;SDS011;10079;55.740;37.662;2023-09-12T16:32:03;15.23;;;6.07;;
19836;SDS011;10079;55.740;37.662;2023-09-12T16:34:44;8.63;;;5.50;;
19836;SDS011;10079;55.740;37.662;2023-09-12T16:37:25;9.53;;;5.77;;
19836;SDS011;10079;55.740;37.662;2023-09-12T16:40:06;12.67;;;6.30;;
19836;SDS011;10079;55.740;37.662;2023-09-12T16:42:57;10.00;;;5.87;;
19836;SDS011;10079;55.740;37.662;2023-09-12T16:56:28;14.50;;;7.13;;
19836;SDS011;10079;55.740;37.662;2023-09-12T16:59:12;16.27;;;7.70;;
19836;SDS011;10079;55.740;37.662;2023-09-12T17:01:56;16.50;;;6.83;;
19836;SDS011;10079;55.740;37.662;2023-09-12T17:04:38;11.87;;;6.27;;
19836;SDS011;10079;55.740;37.662;2023-09-12T17:07:22;12.83;;;7.50;;
19836;SDS011;10079;55.740;37.662;2023-09-12T17:10:03;12.73;;;7.03;;
19836;SDS011;10079;55.740;37.662;2023-09-12T17:23:19;14.90;;;8.57;;
19836;SDS011;10079;55.740;37.662;2023-09-12T17:26:03;12.07;;;6.97;;
19836;SDS011;10079;55.740;37.662;2023-09-12T17:28:47;13.60;;;7.33;;
19836;SDS011;10079;55.740;37.662;2023-09-12T17:31:40;13.17;;;7.50;;
19836;SDS011;10079;55.740;37.662;2023-09-12T17:34:39;11.07;;;7.43;;
19836;SDS011;10079;55.740;37.662;2023-09-12T17:48:10;15.90;;;7.97;;
19836;SDS011;10079;55.740;37.662;2023-09-12T17:50:54;13.90;;;7.53;;
19836;SDS011;10079;55.740;37.662;2023-09-12T17:53:35;13.50;;;7.40;;
19836;SDS011;10079;55.740;37.662;2023-09-12T17:56:16;11.60;;;6.50;;
19836;SDS011;10079;55.740;37.662;2023-09-12T17:58:57;12.93;;;7.57;;
19836;SDS011;10079;55.740;37.662;2023-09-12T18:01:41;12.63;;;7.07;;
19836;SDS011;10079;55.740;37.662;2023-09-12T18:04:24;11.70;;;7.43;;
19836;SDS011;10079;55.740;37.662;2023-09-12T18:07:08;15.57;;;7.73;;
19836;SDS011;10079;55.740;37.662;2023-09-12T18:09:49;11.30;;;6.90;;
19836;SDS011;10079;55.740;37.662;2023-09-12T18:12:31;11.50;;;6.87;;
19836;SDS011;10079;55.740;37.662;2023-09-12T18:15:15;14.73;;;7.30;;
19836;SDS011;10079;55.740;37.662;2023-09-12T18:17:57;13.40;;;6.80;;
19836;SDS011;10079;55.740;37.662;2023-09-12T18:31:13;17.10;;;8.27;;
19836;SDS011;10079;55.740;37.662;2023-09-12T18:33:52;13.67;;;7.90;;
19836;SDS011;10079;55.740;37.662;2023-09-12T18:36:37;14.30;;;7.93;;
19836;SDS011;10079;55.740;37.662;2023-09-12T18:39:18;13.27;;;8.23;;
19836;SDS011;10079;55.740;37.662;2023-09-12T18:41:59;15.60;;;8.17;;
19836;SDS011;10079;55.740;37.662;2023-09-12T18:44:39;11.63;;;8.13;;
19836;SDS011;10079;55.740;37.662;2023-09-12T18:47:24;11.97;;;8.00;;
19836;SDS011;10079;55.740;37.662;2023-09-12T18:50:13;13.27;;;8.20;;
19836;SDS011;10079;55.740;37.662;2023-09-12T18:52:57;13.73;;;8.90;;
19836;SDS011;10079;55.740;37.662;2023-09-12T18:55:39;15.93;;;8.90;;
19836;SDS011;10079;55.740;37.662;2023-09-12T18:58:21;17.67;;;9.43;;
19836;SDS011;10079;55.740;37.662;2023-09-12T19:01:02;17.53;;;9.37;;
19836;SDS011;10079;55.740;37.662;2023-09-12T19:03:54;13.53;;;8.60;;
19836;SDS011;10079;55.740;37.662;2023-09-12T19:06:35;17.50;;;9.40;;
19836;SDS011;10079;55.740;37.662;2023-09-12T19:09:16;16.80;;;9.70;;
19836;SDS011;10079;55.740;37.662;2023-09-12T19:12:07;18.43;;;10.17;;
19836;SDS011;10079;55.740;37.662;2023-09-12T19:14:48;19.83;;;10.53;;
19836;SDS011;10079;55.740;37.662;2023-09-12T19:17:28;15.67;;;9.87;;
19836;SDS011;10079;55.740;37.662;2023-09-12T19:20:09;17.83;;;9.57;;
19836;SDS011;10079;55.740;37.662;2023-09-12T19:22:50;16.83;;;9.50;;
19836;SDS011;10079;55.740;37.662;2023-09-12T19:25:34;23.13;;;10.63;;
19836;SDS011;10079;55.740;37.662;2023-09-12T19:28:15;17.20;;;10.40;;
19836;SDS011;10079;55.740;37.662;2023-09-12T19:31:05;17.00;;;10.60;;
19836;SDS011;10079;55.740;37.662;2023-09-12T19:55:03;15.77;;;9.23;;
19836;SDS011;10079;55.740;37.662;2023-09-12T19:57:48;13.97;;;9.23;;
19836;SDS011;10079;55.740;37.662;2023-09-12T20:00:32;15.17;;;9.90;;
19836;SDS011;10079;55.740;37.662;2023-09-12T20:03:16;16.43;;;9.60;;
19836;SDS011;10079;55.740;37.662;2023-09-12T20:06:00;17.53;;;9.70;;
19836;SDS011;10079;55.740;37.662;2023-09-12T20:08:57;19.30;;;10.60;;
19836;SDS011;10079;55.740;37.662;2023-09-12T20:11:41;15.87;;;9.47;;
19836;SDS011;10079;55.740;37.662;2023-09-12T20:14:25;16.97;;;9.53;;
19836;SDS011;10079;55.740;37.662;2023-09-12T20:17:09;15.67;;;9.20;;
19836;SDS011;10079;55.740;37.662;2023-09-12T20:19:52;13.67;;;8.83;;
19836;SDS011;10079;55.740;37.662;2023-09-12T20:22:33;14.63;;;9.23;;
19836;SDS011;10079;55.740;37.662;2023-09-12T20:25:17;13.80;;;9.53;;
19836;SDS011;10079;55.740;37.662;2023-09-12T20:28:02;15.70;;;9.47;;
19836;SDS011;10079;55.740;37.662;2023-09-12T20:30:51;16.27;;;9.23;;
19836;SDS011;10079;55.740;37.662;2023-09-12T20:33:36;13.80;;;8.60;;
19836;SDS011;10079;55.740;37.662;2023-09-12T20:36:26;16.70;;;9.67;;
19836;SDS011;10079;55.740;37.662;2023-09-12T20:42:10;18.53;;;9.67;;
19836;SDS011;10079;55.740;37.662;2023-09-12T20:44:51;16.37;;;9.03;;
19836;SDS011;10079;55.740;37.662;2023-09-12T20:47:32;15.03;;;9.30;;
19836;SDS011;10079;55.740;37.662;2023-09-12T20:50:16;18.03;;;10.53;;
19836;SDS011;10079;55.740;37.662;2023-09-12T20:53:02;16.43;;;10.30;;
19836;SDS011;10079;55.740;37.662;2023-09-12T20:55:44;16.33;;;9.63;;
19836;SDS011;10079;55.740;37.662;2023-09-12T20:58:32;16.30;;;10.27;;
19836;SDS011;10079;55.740;37.662;2023-09-12T21:01:12;16.77;;;10.00;;
19836;SDS011;10079;55.740;37.662;2023-09-12T21:04:02;18.77;;;9.70;;
19836;SDS011;10079;55.740;37.662;2023-09-12T21:06:44;17.00;;;9.83;;
19836;SDS011;10079;55.740;37.662;2023-09-12T21:09:26;16.97;;;10.27;;
19836;SDS011;10079;55.740;37.662;2023-09-12T21:12:07;21.77;;;10.50;;
19836;SDS011;10079;55.740;37.662;2023-09-12T21:14:51;18.10;;;10.50;;
19836;SDS011;10079;55.740;37.662;2023-09-12T21:17:36;15.97;;;10.80;;
19836;SDS011;10079;55.740;37.662;2023-09-12T21:20:16;22.47;;;10.83;;
19836;SDS011;10079;55.740;37.662;2023-09-12T21:22:57;18.80;;;10.47;;
19836;SDS011;10079;55.740;37.662;2023-09-12T21:25:39;21.53;;;11.33;;
19836;SDS011;10079;55.740;37.662;2023-09-12T21:28:23;15.53;;;10.40;;
19836;SDS011;10079;55.740;37.662;2023-09-12T21:31:04;16.17;;;10.43;;
19836;SDS011;10079;55.740;37.662;2023-09-12T21:33:45;18.43;;;11.33;;
19836;SDS011;10079;55.740;37.662;2023-09-12T21:36:25;18.70;;;11.00;;
19836;SDS011;10079;55.740;37.662;2023-09-12T21:39:06;20.43;;;11.03;;
19836;SDS011;10079;55.740;37.662;2023-09-12T21:41:48;19.60;;;10.03;;
19836;SDS011;10079;55.740;37.662;2023-09-12T21:44:29;20.33;;;10.83;;
19836;SDS011;10079;55.740;37.662;2023-09-12T21:47:09;18.00;;;9.57;;
19836;SDS011;10079;55.740;37.662;2023-09-12T21:49:52;15.90;;;9.43;;
19836;SDS011;10079;55.740;37.662;2023-09-12T21:52:33;14.57;;;9.80;;
19836;SDS011;10079;55.740;37.662;2023-09-12T21:55:17;16.50;;;9.40;;
19836;SDS011;10079;55.740;37.662;2023-09-12T21:57:58;15.60;;;9.70;;
19836;SDS011;10079;55.740;37.662;2023-09-12T22:00:41;16.80;;;9.33;;
19836;SDS011;10079;55.740;37.662;2023-09-12T22:03:22;16.50;;;9.23;;
19836;SDS011;10079;55.740;37.662;2023-09-12T22:06:03;16.03;;;9.33;;
19836;SDS011;10079;55.740;37.662;2023-09-12T22:08:47;13.60;;;8.87;;
19836;SDS011;10079;55.740;37.662;2023-09-12T22:11:40;17.90;;;9.77;;
19836;SDS011;10079;55.740;37.662;2023-09-12T22:35:36;17.50;;;10.37;;
19836;SDS011;10079;55.740;37.662;2023-09-12T22:38:25;16.17;;;11.00;;
19836;SDS011;10079;55.740;37.662;2023-09-12T22:41:19;14.37;;;9.63;;
19836;SDS011;10079;55.740;37.662;2023-09-12T22:44:03;19.23;;;9.40;;
19836;SDS011;10079;55.740;37.662;2023-09-12T22:46:44;16.93;;;10.00;;
19836;SDS011;10079;55.740;37.662;2023-09-12T22:49:29;13.80;;;9.23;;
19836;SDS011;10079;55.740;37.662;2023-09-12T22:52:22;16.93;;;9.37;;
19836;SDS011;10079;55.740;37.662;2023-09-12T23:05:34;15.00;;;9.60;;
19836;SDS011;10079;55.740;37.662;2023-09-12T23:08:16;15.13;;;9.43;;
19836;SDS011;10079;55.740;37.662;2023-09-12T23:11:09;16.53;;;9.80;;
19836;SDS011;10079;55.740;37.662;2023-09-12T23:13:51;16.33;;;9.70;;
19836;SDS011;10079;55.740;37.662;2023-09-12T23:16:35;17.23;;;9.23;;
19836;SDS011;10079;55.740;37.662;2023-09-12T23:19:16;18.17;;;9.87;;
19836;SDS011;10079;55.740;37.662;2023-09-12T23:21:57;16.93;;;10.27;;
19836;SDS011;10079;55.740;37.662;2023-09-12T23:24:39;16.37;;;8.93;;
19836;SDS011;10079;55.740;37.662;2023-09-12T23:27:20;15.77;;;10.27;;
19836;SDS011;10079;55.740;37.662;2023-09-12T23:30:02;14.90;;;9.37;;
19836;SDS011;10079;55.740;37.662;2023-09-12T23:32:45;15.07;;;9.87;;
19836;SDS011;10079;55.740;37.662;2023-09-12T23:35:26;16.93;;;10.67;;
19836;SDS011;10079;55.740;37.662;2023-09-12T23:38:08;15.60;;;9.10;;
19836;SDS011;10079;55.740;37.662;2023-09-12T23:40:48;17.30;;;10.33;;
19836;SDS011;10079;55.740;37.662;2023-09-12T23:43:29;13.90;;;9.63;;
19836;SDS011;10079;55.740;37.662;2023-09-12T23:46:11;16.77;;;10.00;;
19836;SDS011;10079;55.740;37.662;2023-09-12T23:48:52;17.00;;;11.50;;
19836;SDS011;10079;55.740;37.662;2023-09-12T23:51:33;17.87;;;9.87;;
19836;SDS011;10079;55.740;37.662;2023-09-12T23:54:14;21.07;;;10.37;;
19836;SDS011;10079;55.740;37.662;2023-09-12T23:56:55;18.30;;;10.30;;
19836;SDS011;10079;55.740;37.662;2023-09-12T23:59:36;18.53;;;10.70;;
